sensor_id;sensor_type;location;lat;lon;timestamp;pressure;altitude;pressure_sealevel;temperature;humidity
9969;BME280;5025;48.890;9.278;2022-09-27T00:01:21;97028.41;;;10.88;80.34
9969;BME280;5025;48.890;9.278;2022-09-27T00:03:46;97021.13;;;10.84;80.32
9969;BME280;5025;48.890;9.278;2022-09-27T00:06:14;97015.19;;;10.82;80.58
9969;BME280;5025;48.890;9.278;2022-09-27T00:08:41;97008.16;;;10.81;80.82
9969;BME280;5025;48.890;9.278;2022-09-27T00:11:11;97002.50;;;10.82;80.81
9969;BME280;5025;48.890;9.278;2022-09-27T00:13:38;97006.00;;;10.88;80.74
9969;BME280;5025;48.890;9.278;2022-09-27T00:16:04;97020.56;;;10.87;80.57
9969;BME280;5025;48.890;9.278;2022-09-27T00:18:31;97008.44;;;10.79;80.66
9969;BME280;5025;48.890;9.278;2022-09-27T00:21:04;97001.97;;;10.75;80.92
9969;BME280;5025;48.890;9.278;2022-09-27T00:23:30;97008.19;;;10.70;81.29
9969;BME280;5025;48.890;9.278;2022-09-27T00:25:57;97012.25;;;10.68;81.53
9969;BME280;5025;48.890;9.278;2022-09-27T00:28:23;97011.72;;;10.61;81.82
9969;BME280;5025;48.890;9.278;2022-09-27T00:30:49;97004.44;;;10.56;82.08
9969;BME280;5025;48.890;9.278;2022-09-27T00:33:14;96999.03;;;10.56;82.27
9969;BME280;5025;48.890;9.278;2022-09-27T00:35:39;97005.25;;;10.56;82.79
9969;BME280;5025;48.890;9.278;2022-09-27T00:38:05;96995.53;;;10.55;82.92
9969;BME280;5025;48.890;9.278;2022-09-27T00:40:31;96992.84;;;10.55;82.83
9969;BME280;5025;48.890;9.278;2022-09-27T00:42:56;96991.50;;;10.53;82.83
9969;BME280;5025;48.890;9.278;2022-09-27T00:45:22;96992.31;;;10.53;83.13
9969;BME280;5025;48.890;9.278;2022-09-27T00:47:54;96988.00;;;10.52;83.05
9969;BME280;5025;48.890;9.278;2022-09-27T00:50:25;96988.53;;;10.49;83.41
9969;BME280;5025;48.890;9.278;2022-09-27T00:55:30;96989.09;;;10.41;84.04
9969;BME280;5025;48.890;9.278;2022-09-27T00:57:57;96987.44;;;10.45;83.95
9969;BME280;5025;48.890;9.278;2022-09-27T01:00:23;96981.81;;;10.42;84.30
9969;BME280;5025;48.890;9.278;2022-09-27T01:02:50;96992.31;;;10.43;84.40
9969;BME280;5025;48.890;9.278;2022-09-27T01:05:19;96988.00;;;10.42;84.57
9969;BME280;5025;48.890;9.278;2022-09-27T01:07:45;96988.00;;;10.37;84.92
9969;BME280;5025;48.890;9.278;2022-09-27T01:10:11;96984.78;;;10.40;84.98
9969;BME280;5025;48.890;9.278;2022-09-27T01:13:06;96984.22;;;10.43;85.22
9969;BME280;5025;48.890;9.278;2022-09-27T01:16:03;96994.75;;;10.45;85.06
9969;BME280;5025;48.890;9.278;2022-09-27T01:18:39;96985.03;;;10.44;85.22
9969;BME280;5025;48.890;9.278;2022-09-27T01:21:36;96985.03;;;10.44;85.30
9969;BME280;5025;48.890;9.278;2022-09-27T01:29:33;96979.91;;;10.42;85.46
9969;BME280;5025;48.890;9.278;2022-09-27T01:32:25;96977.47;;;10.40;85.70
9969;BME280;5025;48.890;9.278;2022-09-27T01:37:50;96983.69;;;10.46;85.56
9969;BME280;5025;48.890;9.278;2022-09-27T01:40:31;96972.09;;;10.46;85.49
9969;BME280;5025;48.890;9.278;2022-09-27T01:43:23;96968.03;;;10.43;85.69
9969;BME280;5025;48.890;9.278;2022-09-27T01:48:23;96972.34;;;10.49;85.39
9969;BME280;5025;48.890;9.278;2022-09-27T01:50:53;96976.13;;;10.48;85.67
9969;BME280;5025;48.890;9.278;2022-09-27T01:53:34;96968.59;;;10.40;85.82
9969;BME280;5025;48.890;9.278;2022-09-27T01:56:07;96966.94;;;10.39;85.91
9969;BME280;5025;48.890;9.278;2022-09-27T02:01:06;96970.47;;;10.39;86.10
9969;BME280;5025;48.890;9.278;2022-09-27T02:03:35;96978.84;;;10.43;85.91
9969;BME280;5025;48.890;9.278;2022-09-27T02:09:31;96979.38;;;10.40;86.19
9969;BME280;5025;48.890;9.278;2022-09-27T02:12:02;96985.56;;;10.40;86.22
9969;BME280;5025;48.890;9.278;2022-09-27T02:14:34;96974.50;;;10.42;86.28
9969;BME280;5025;48.890;9.278;2022-09-27T02:17:12;96983.44;;;10.43;86.36
9969;BME280;5025;48.890;9.278;2022-09-27T02:20:04;96988.00;;;10.42;86.41
9969;BME280;5025;48.890;9.278;2022-09-27T02:22:38;96987.75;;;10.38;86.84
9969;BME280;5025;48.890;9.278;2022-09-27T02:25:39;96990.97;;;10.40;86.61
9969;BME280;5025;48.890;9.278;2022-09-27T02:28:26;96992.34;;;10.38;87.09
9969;BME280;5025;48.890;9.278;2022-09-27T02:30:52;97002.03;;;10.34;87.11
9969;BME280;5025;48.890;9.278;2022-09-27T02:33:19;96999.34;;;10.34;87.37
9969;BME280;5025;48.890;9.278;2022-09-27T02:35:46;96999.84;;;10.31;87.67
9969;BME280;5025;48.890;9.278;2022-09-27T02:38:12;97022.00;;;10.22;88.03
9969;BME280;5025;48.890;9.278;2022-09-27T02:40:43;97018.22;;;10.13;88.87
9969;BME280;5025;48.890;9.278;2022-09-27T02:43:09;97016.31;;;9.98;90.26
9969;BME280;5025;48.890;9.278;2022-09-27T02:48:18;97015.78;;;10.01;91.70
9969;BME280;5025;48.890;9.278;2022-09-27T02:54:12;97011.44;;;10.00;91.84
9969;BME280;5025;48.890;9.278;2022-09-27T03:00:00;97031.41;;;9.84;91.29
9969;BME280;5025;48.890;9.278;2022-09-27T03:05:06;97028.41;;;9.70;90.17
9969;BME280;5025;48.890;9.278;2022-09-27T03:07:33;97029.19;;;9.65;89.62
9969;BME280;5025;48.890;9.278;2022-09-27T03:09:59;97051.03;;;9.69;89.04
9969;BME280;5025;48.890;9.278;2022-09-27T03:12:24;97036.75;;;9.79;88.66
9969;BME280;5025;48.890;9.278;2022-09-27T03:14:58;97039.22;;;9.85;88.29
9969;BME280;5025;48.890;9.278;2022-09-27T03:17:24;97049.44;;;9.83;87.69
9969;BME280;5025;48.890;9.278;2022-09-27T03:19:50;97044.56;;;9.80;87.55
9969;BME280;5025;48.890;9.278;2022-09-27T03:22:16;97062.38;;;9.76;87.10
9969;BME280;5025;48.890;9.278;2022-09-27T03:24:41;97051.31;;;9.73;86.69
9969;BME280;5025;48.890;9.278;2022-09-27T03:27:08;97061.28;;;9.72;86.63
9969;BME280;5025;48.890;9.278;2022-09-27T03:29:34;97058.00;;;9.60;86.44
9969;BME280;5025;48.890;9.278;2022-09-27T03:32:01;97059.13;;;9.69;86.51
9969;BME280;5025;48.890;9.278;2022-09-27T03:34:26;97062.34;;;9.71;86.11
9969;BME280;5025;48.890;9.278;2022-09-27T03:36:52;97064.25;;;9.65;85.81
9969;BME280;5025;48.890;9.278;2022-09-27T03:39:17;97056.38;;;9.59;85.95
9969;BME280;5025;48.890;9.278;2022-09-27T03:41:42;97056.69;;;9.62;85.92
9969;BME280;5025;48.890;9.278;2022-09-27T03:44:08;97059.34;;;9.52;85.62
9969;BME280;5025;48.890;9.278;2022-09-27T03:46:33;97055.00;;;9.51;86.09
9969;BME280;5025;48.890;9.278;2022-09-27T03:48:59;97058.53;;;9.57;86.01
9969;BME280;5025;48.890;9.278;2022-09-27T03:51:24;97053.69;;;9.48;86.24
9969;BME280;5025;48.890;9.278;2022-09-27T03:53:50;97076.84;;;9.49;86.60
9969;BME280;5025;48.890;9.278;2022-09-27T03:56:16;97061.19;;;9.46;86.45
9969;BME280;5025;48.890;9.278;2022-09-27T03:58:41;97083.59;;;9.52;86.18
9969;BME280;5025;48.890;9.278;2022-09-27T04:01:06;97071.19;;;9.51;86.45
9969;BME280;5025;48.890;9.278;2022-09-27T04:03:32;97074.19;;;9.55;86.36
9969;BME280;5025;48.890;9.278;2022-09-27T04:05:57;97068.78;;;9.55;86.27
9969;BME280;5025;48.890;9.278;2022-09-27T04:08:24;97066.63;;;9.51;86.46
9969;BME280;5025;48.890;9.278;2022-09-27T04:10:49;97062.59;;;9.59;86.19
9969;BME280;5025;48.890;9.278;2022-09-27T04:13:15;97064.19;;;9.60;86.14
9969;BME280;5025;48.890;9.278;2022-09-27T04:15:41;97070.69;;;9.59;86.14
9969;BME280;5025;48.890;9.278;2022-09-27T04:18:07;97079.03;;;9.58;86.31
9969;BME280;5025;48.890;9.278;2022-09-27T04:20:34;97079.53;;;9.49;86.12
9969;BME280;5025;48.890;9.278;2022-09-27T04:23:00;97075.22;;;9.48;86.35
9969;BME280;5025;48.890;9.278;2022-09-27T04:25:25;97066.31;;;9.48;86.27
9969;BME280;5025;48.890;9.278;2022-09-27T04:27:50;97087.88;;;9.48;86.65
9969;BME280;5025;48.890;9.278;2022-09-27T04:30:18;97080.59;;;9.43;86.54
9969;BME280;5025;48.890;9.278;2022-09-27T04:32:44;97090.59;;;9.53;86.54
9969;BME280;5025;48.890;9.278;2022-09-27T04:35:11;97091.41;;;9.48;86.13
9969;BME280;5025;48.890;9.278;2022-09-27T04:37:55;97077.34;;;9.46;86.17
9969;BME280;5025;48.890;9.278;2022-09-27T04:40:22;97087.38;;;9.56;85.92
9969;BME280;5025;48.890;9.278;2022-09-27T04:42:48;97085.50;;;9.57;86.04
9969;BME280;5025;48.890;9.278;2022-09-27T04:45:13;97091.94;;;9.50;86.09
9969;BME280;5025;48.890;9.278;2022-09-27T04:47:46;97099.47;;;9.48;86.12
9969;BME280;5025;48.890;9.278;2022-09-27T04:50:12;97095.44;;;9.51;86.19
9969;BME280;5025;48.890;9.278;2022-09-27T04:52:38;97100.56;;;9.52;85.57
9969;BME280;5025;48.890;9.278;2022-09-27T04:55:05;97104.88;;;9.59;85.78
9969;BME280;5025;48.890;9.278;2022-09-27T04:57:31;97101.66;;;9.51;85.55
9969;BME280;5025;48.890;9.278;2022-09-27T04:59:56;97103.00;;;9.54;85.16
9969;BME280;5025;48.890;9.278;2022-09-27T05:02:23;97117.78;;;9.46;85.59
9969;BME280;5025;48.890;9.278;2022-09-27T05:04:48;97117.25;;;9.49;85.92
9969;BME280;5025;48.890;9.278;2022-09-27T05:07:13;97113.50;;;9.50;85.76
9969;BME280;5025;48.890;9.278;2022-09-27T05:09:38;97116.69;;;9.42;86.39
9969;BME280;5025;48.890;9.278;2022-09-27T05:12:04;97122.09;;;9.42;86.75
9969;BME280;5025;48.890;9.278;2022-09-27T05:14:31;97127.75;;;9.46;86.86
9969;BME280;5025;48.890;9.278;2022-09-27T05:16:57;97126.66;;;9.42;86.87
9969;BME280;5025;48.890;9.278;2022-09-27T05:19:22;97126.91;;;9.40;86.83
9969;BME280;5025;48.890;9.278;2022-09-27T05:21:48;97139.84;;;9.43;86.50
9969;BME280;5025;48.890;9.278;2022-09-27T05:24:14;97135.03;;;9.45;86.57
9969;BME280;5025;48.890;9.278;2022-09-27T05:26:40;97145.56;;;9.52;86.08
9969;BME280;5025;48.890;9.278;2022-09-27T05:29:06;97153.91;;;9.45;86.09
9969;BME280;5025;48.890;9.278;2022-09-27T05:31:32;97147.97;;;9.48;86.14
9969;BME280;5025;48.890;9.278;2022-09-27T05:33:57;97166.78;;;9.43;86.33
9969;BME280;5025;48.890;9.278;2022-09-27T05:36:22;97167.84;;;9.37;86.93
9969;BME280;5025;48.890;9.278;2022-09-27T05:38:48;97175.91;;;9.37;87.10
9969;BME280;5025;48.890;9.278;2022-09-27T05:41:13;97172.44;;;9.37;87.27
9969;BME280;5025;48.890;9.278;2022-09-27T05:43:39;97171.09;;;9.39;87.51
9969;BME280;5025;48.890;9.278;2022-09-27T05:46:04;97184.00;;;9.37;87.33
9969;BME280;5025;48.890;9.278;2022-09-27T05:48:35;97178.84;;;9.30;87.72
9969;BME280;5025;48.890;9.278;2022-09-27T05:51:05;97191.25;;;9.31;87.50
9969;BME280;5025;48.890;9.278;2022-09-27T05:53:33;97187.78;;;9.36;87.49
9969;BME280;5025;48.890;9.278;2022-09-27T05:56:05;97189.34;;;9.27;87.58
9969;BME280;5025;48.890;9.278;2022-09-27T05:58:30;97191.78;;;9.28;87.60
9969;BME280;5025;48.890;9.278;2022-09-27T06:00:56;97197.16;;;9.28;87.36
9969;BME280;5025;48.890;9.278;2022-09-27T06:03:21;97218.47;;;9.30;86.89
9969;BME280;5025;48.890;9.278;2022-09-27T06:05:46;97200.91;;;9.27;86.13
9969;BME280;5025;48.890;9.278;2022-09-27T06:08:12;97194.16;;;9.25;85.53
9969;BME280;5025;48.890;9.278;2022-09-27T06:10:39;97200.09;;;9.22;85.53
9969;BME280;5025;48.890;9.278;2022-09-27T06:13:10;97206.06;;;9.29;85.46
9969;BME280;5025;48.890;9.278;2022-09-27T06:15:37;97214.91;;;9.24;85.46
9969;BME280;5025;48.890;9.278;2022-09-27T06:18:05;97224.63;;;9.25;85.44
9969;BME280;5025;48.890;9.278;2022-09-27T06:20:32;97236.72;;;9.23;85.72
9969;BME280;5025;48.890;9.278;2022-09-27T06:23:06;97227.06;;;9.27;85.50
9969;BME280;5025;48.890;9.278;2022-09-27T06:25:32;97232.97;;;9.24;85.84
9969;BME280;5025;48.890;9.278;2022-09-27T06:27:58;97241.84;;;9.24;86.02
9969;BME280;5025;48.890;9.278;2022-09-27T06:30:23;97234.56;;;9.25;86.13
9969;BME280;5025;48.890;9.278;2022-09-27T06:32:57;97228.91;;;9.26;86.40
9969;BME280;5025;48.890;9.278;2022-09-27T06:35:22;97235.44;;;9.30;86.28
9969;BME280;5025;48.890;9.278;2022-09-27T06:37:49;97244.63;;;9.35;86.13
9969;BME280;5025;48.890;9.278;2022-09-27T06:40:15;97255.09;;;9.31;85.75
9969;BME280;5025;48.890;9.278;2022-09-27T06:42:40;97243.47;;;9.25;85.87
9969;BME280;5025;48.890;9.278;2022-09-27T06:45:06;97245.94;;;9.32;85.78
9969;BME280;5025;48.890;9.278;2022-09-27T06:47:35;97253.53;;;9.40;85.73
9969;BME280;5025;48.890;9.278;2022-09-27T06:50:01;97251.63;;;9.36;85.56
9969;BME280;5025;48.890;9.278;2022-09-27T06:54:55;97272.59;;;9.28;85.61
9969;BME280;5025;48.890;9.278;2022-09-27T06:57:20;97251.84;;;9.29;85.54
9969;BME280;5025;48.890;9.278;2022-09-27T07:00:05;97268.81;;;9.29;85.42
9969;BME280;5025;48.890;9.278;2022-09-27T07:02:55;97270.38;;;9.20;84.46
9969;BME280;5025;48.890;9.278;2022-09-27T07:05:28;97269.03;;;9.23;84.62
9969;BME280;5025;48.890;9.278;2022-09-27T07:07:57;97272.50;;;9.18;84.21
9969;BME280;5025;48.890;9.278;2022-09-27T07:10:24;97269.84;;;9.23;84.28
9969;BME280;5025;48.890;9.278;2022-09-27T07:12:50;97286.84;;;9.24;84.32
9969;BME280;5025;48.890;9.278;2022-09-27T07:15:16;97285.06;;;9.07;84.50
9969;BME280;5025;48.890;9.278;2022-09-27T07:17:42;97284.22;;;9.02;84.83
9969;BME280;5025;48.890;9.278;2022-09-27T07:20:07;97282.81;;;8.94;85.05
9969;BME280;5025;48.890;9.278;2022-09-27T07:22:38;97282.16;;;8.82;85.09
9969;BME280;5025;48.890;9.278;2022-09-27T07:25:04;97309.00;;;8.76;85.26
9969;BME280;5025;48.890;9.278;2022-09-27T07:27:30;97297.53;;;8.86;85.31
9969;BME280;5025;48.890;9.278;2022-09-27T07:29:57;97288.72;;;8.91;85.27
9969;BME280;5025;48.890;9.278;2022-09-27T07:32:22;97289.28;;;8.98;84.81
9969;BME280;5025;48.890;9.278;2022-09-27T07:34:47;97303.34;;;9.00;85.35
9969;BME280;5025;48.890;9.278;2022-09-27T07:37:13;97308.25;;;9.08;85.16
9969;BME280;5025;48.890;9.278;2022-09-27T07:39:38;97313.59;;;9.03;84.88
9969;BME280;5025;48.890;9.278;2022-09-27T07:42:03;97315.72;;;9.01;85.54
9969;BME280;5025;48.890;9.278;2022-09-27T07:44:30;97320.91;;;9.08;86.14
9969;BME280;5025;48.890;9.278;2022-09-27T07:46:55;97318.50;;;9.11;85.74
9969;BME280;5025;48.890;9.278;2022-09-27T07:49:20;97321.47;;;9.10;85.91
9969;BME280;5025;48.890;9.278;2022-09-27T07:51:46;97328.16;;;9.07;86.13
9969;BME280;5025;48.890;9.278;2022-09-27T07:54:11;97327.38;;;9.12;86.45
9969;BME280;5025;48.890;9.278;2022-09-27T07:56:36;97340.84;;;9.12;86.54
9969;BME280;5025;48.890;9.278;2022-09-27T07:59:02;97327.66;;;9.10;86.14
9969;BME280;5025;48.890;9.278;2022-09-27T08:01:27;97337.34;;;9.11;85.69
9969;BME280;5025;48.890;9.278;2022-09-27T08:03:52;97334.97;;;9.15;86.02
9969;BME280;5025;48.890;9.278;2022-09-27T08:06:18;97337.75;;;9.25;85.32
9969;BME280;5025;48.890;9.278;2022-09-27T08:08:43;97337.75;;;9.25;85.69
9969;BME280;5025;48.890;9.278;2022-09-27T08:11:14;97338.56;;;9.26;86.04
9969;BME280;5025;48.890;9.278;2022-09-27T08:13:44;97354.72;;;9.26;85.07
9969;BME280;5025;48.890;9.278;2022-09-27T08:16:10;97346.66;;;9.31;84.11
9969;BME280;5025;48.890;9.278;2022-09-27T08:18:36;97335.13;;;9.36;83.53
9969;BME280;5025;48.890;9.278;2022-09-27T08:21:02;97355.63;;;9.37;83.24
9969;BME280;5025;48.890;9.278;2022-09-27T08:23:29;97358.56;;;9.35;82.04
9969;BME280;5025;48.890;9.278;2022-09-27T08:25:54;97344.34;;;9.40;82.45
9969;BME280;5025;48.890;9.278;2022-09-27T08:28:22;97366.44;;;9.42;81.42
9969;BME280;5025;48.890;9.278;2022-09-27T08:30:48;97374.00;;;9.45;80.93
9969;BME280;5025;48.890;9.278;2022-09-27T08:33:14;97401.03;;;9.50;79.89
9969;BME280;5025;48.890;9.278;2022-09-27T08:35:40;97385.69;;;9.56;79.88
9969;BME280;5025;48.890;9.278;2022-09-27T08:38:05;97386.81;;;9.60;79.71
9969;BME280;5025;48.890;9.278;2022-09-27T08:46:03;97404.75;;;9.76;79.50
9969;BME280;5025;48.890;9.278;2022-09-27T08:48:31;97380.16;;;9.73;78.58
9969;BME280;5025;48.890;9.278;2022-09-27T08:50:57;97393.91;;;9.71;76.96
9969;BME280;5025;48.890;9.278;2022-09-27T08:53:27;97384.75;;;9.72;76.74
9969;BME280;5025;48.890;9.278;2022-09-27T08:55:56;97379.38;;;9.77;76.60
9969;BME280;5025;48.890;9.278;2022-09-27T08:58:49;97380.53;;;9.86;76.76
9969;BME280;5025;48.890;9.278;2022-09-27T09:01:16;97385.41;;;9.90;76.80
9969;BME280;5025;48.890;9.278;2022-09-27T09:03:46;97382.47;;;9.91;76.74
9969;BME280;5025;48.890;9.278;2022-09-27T09:06:22;97396.50;;;9.93;76.24
9969;BME280;5025;48.890;9.278;2022-09-27T09:17:34;97392.66;;;9.84;76.90
9969;BME280;5025;48.890;9.278;2022-09-27T09:25:18;97384.84;;;9.82;76.58
9969;BME280;5025;48.890;9.278;2022-09-27T09:30:31;97374.09;;;9.93;76.79
9969;BME280;5025;48.890;9.278;2022-09-27T09:33:15;97390.28;;;9.93;75.95
9969;BME280;5025;48.890;9.278;2022-09-27T09:38:26;97384.47;;;10.11;75.60
9969;BME280;5025;48.890;9.278;2022-09-27T09:41:02;97380.78;;;10.22;74.63
9969;BME280;5025;48.890;9.278;2022-09-27T09:43:41;97398.44;;;10.40;74.45
9969;BME280;5025;48.890;9.278;2022-09-27T09:46:16;97376.59;;;10.42;72.54
9969;BME280;5025;48.890;9.278;2022-09-27T09:49:00;97404.19;;;10.54;72.36
9969;BME280;5025;48.890;9.278;2022-09-27T09:51:37;97375.59;;;10.53;71.80
9969;BME280;5025;48.890;9.278;2022-09-27T09:54:14;97387.19;;;10.59;71.61
9969;BME280;5025;48.890;9.278;2022-09-27T09:56:47;97370.47;;;10.67;71.28
9969;BME280;5025;48.890;9.278;2022-09-27T09:59:23;97360.25;;;10.80;70.48
9969;BME280;5025;48.890;9.278;2022-09-27T10:01:51;97364.59;;;10.75;69.17
9969;BME280;5025;48.890;9.278;2022-09-27T10:04:22;97370.28;;;10.84;69.22
9969;BME280;5025;48.890;9.278;2022-09-27T10:06:49;97361.09;;;10.85;69.17
9969;BME280;5025;48.890;9.278;2022-09-27T10:09:16;97351.63;;;10.77;69.21
9969;BME280;5025;48.890;9.278;2022-09-27T10:11:45;97375.94;;;10.83;68.66
9969;BME280;5025;48.890;9.278;2022-09-27T10:14:15;97358.63;;;10.73;66.09
9969;BME280;5025;48.890;9.278;2022-09-27T10:16:44;97350.53;;;10.73;66.25
9969;BME280;5025;48.890;9.278;2022-09-27T10:19:16;97354.63;;;10.86;66.98
9969;BME280;5025;48.890;9.278;2022-09-27T10:21:45;97355.47;;;10.97;67.51
9969;BME280;5025;48.890;9.278;2022-09-27T10:24:15;97360.88;;;10.97;67.44
9969;BME280;5025;48.890;9.278;2022-09-27T10:26:43;97345.75;;;11.01;66.86
9969;BME280;5025;48.890;9.278;2022-09-27T10:29:29;97356.56;;;11.06;66.47
9969;BME280;5025;48.890;9.278;2022-09-27T10:31:56;97345.78;;;11.11;66.30
9969;BME280;5025;48.890;9.278;2022-09-27T10:34:34;97353.88;;;11.17;67.00
9969;BME280;5025;48.890;9.278;2022-09-27T10:37:13;97366.84;;;11.15;64.11
9969;BME280;5025;48.890;9.278;2022-09-27T10:39:45;97344.13;;;11.10;64.03
9969;BME280;5025;48.890;9.278;2022-09-27T10:42:33;97356.28;;;11.03;63.61
9969;BME280;5025;48.890;9.278;2022-09-27T10:45:30;97347.91;;;10.99;63.78
9969;BME280;5025;48.890;9.278;2022-09-27T10:48:01;97345.22;;;10.99;64.17
9969;BME280;5025;48.890;9.278;2022-09-27T10:50:29;97368.97;;;10.97;63.24
9969;BME280;5025;48.890;9.278;2022-09-27T10:53:03;97342.50;;;10.94;63.50
9969;BME280;5025;48.890;9.278;2022-09-27T10:55:34;97336.53;;;10.87;64.26
9969;BME280;5025;48.890;9.278;2022-09-27T10:58:00;97347.06;;;10.83;64.47
9969;BME280;5025;48.890;9.278;2022-09-27T11:00:31;97348.13;;;10.82;64.52
9969;BME280;5025;48.890;9.278;2022-09-27T11:03:04;97341.13;;;10.86;65.11
9969;BME280;5025;48.890;9.278;2022-09-27T11:05:36;97327.63;;;10.86;65.34
9969;BME280;5025;48.890;9.278;2022-09-27T11:19:35;97333.03;;;10.91;67.54
9969;BME280;5025;48.890;9.278;2022-09-27T11:22:32;97324.16;;;11.06;67.52
9969;BME280;5025;48.890;9.278;2022-09-27T11:28:22;97328.16;;;10.93;68.89
9969;BME280;5025;48.890;9.278;2022-09-27T11:31:07;97328.16;;;10.88;70.99
9969;BME280;5025;48.890;9.278;2022-09-27T11:36:25;97317.94;;;11.06;70.75
9969;BME280;5025;48.890;9.278;2022-09-27T11:39:06;97308.47;;;11.13;70.78
9969;BME280;5025;48.890;9.278;2022-09-27T11:41:46;97301.19;;;11.19;70.63
9969;BME280;5025;48.890;9.278;2022-09-27T12:02:50;97394.16;;;9.37;81.45
9969;BME280;5025;48.890;9.278;2022-09-27T12:11:57;97397.84;;;8.54;84.96
9969;BME280;5025;48.890;9.278;2022-09-27T12:17:02;97375.03;;;8.40;86.32
9969;BME280;5025;48.890;9.278;2022-09-27T12:19:33;97371.94;;;8.31;86.27
9969;BME280;5025;48.890;9.278;2022-09-27T12:22:03;97369.47;;;8.47;86.07
9969;BME280;5025;48.890;9.278;2022-09-27T12:24:31;97376.00;;;8.51;86.11
9969;BME280;5025;48.890;9.278;2022-09-27T12:27:09;97360.72;;;8.56;86.06
9969;BME280;5025;48.890;9.278;2022-09-27T12:29:39;97370.19;;;8.59;86.15
9969;BME280;5025;48.890;9.278;2022-09-27T12:32:25;97366.69;;;8.58;86.26
9969;BME280;5025;48.890;9.278;2022-09-27T12:35:23;97363.75;;;8.60;86.06
9969;BME280;5025;48.890;9.278;2022-09-27T12:38:05;97362.72;;;8.66;85.66
9969;BME280;5025;48.890;9.278;2022-09-27T12:40:55;97369.94;;;8.60;85.88
9969;BME280;5025;48.890;9.278;2022-09-27T12:43:29;97367.72;;;8.57;86.44
9969;BME280;5025;48.890;9.278;2022-09-27T12:51:14;97369.41;;;8.41;87.34
9969;BME280;5025;48.890;9.278;2022-09-27T12:59:23;97347.25;;;8.34;87.72
9969;BME280;5025;48.890;9.278;2022-09-27T13:10:25;97338.59;;;8.76;87.22
9969;BME280;5025;48.890;9.278;2022-09-27T13:12:56;97338.19;;;8.85;86.92
9969;BME280;5025;48.890;9.278;2022-09-27T13:15:32;97340.88;;;8.85;86.58
9969;BME280;5025;48.890;9.278;2022-09-27T13:18:00;97336.78;;;8.82;86.72
9969;BME280;5025;48.890;9.278;2022-09-27T13:20:45;97341.94;;;8.84;86.82
9969;BME280;5025;48.890;9.278;2022-09-27T13:34:44;97343.72;;;8.51;88.56
9969;BME280;5025;48.890;9.278;2022-09-27T13:40:32;97345.72;;;8.60;88.56
9969;BME280;5025;48.890;9.278;2022-09-27T13:45:57;97332.97;;;8.78;88.32
9969;BME280;5025;48.890;9.278;2022-09-27T13:54:05;97322.53;;;8.82;88.20
9969;BME280;5025;48.890;9.278;2022-09-27T13:59:13;97319.59;;;8.83;88.40
9969;BME280;5025;48.890;9.278;2022-09-27T14:01:44;97326.25;;;8.75;88.10
9969;BME280;5025;48.890;9.278;2022-09-27T14:04:31;97313.13;;;8.57;87.92
9969;BME280;5025;48.890;9.278;2022-09-27T14:07:01;97326.94;;;8.43;88.33
9969;BME280;5025;48.890;9.278;2022-09-27T14:09:33;97317.22;;;8.42;88.47
9969;BME280;5025;48.890;9.278;2022-09-27T14:12:07;97316.72;;;8.46;88.88
9969;BME280;5025;48.890;9.278;2022-09-27T14:14:34;97313.88;;;8.52;88.91
9969;BME280;5025;48.890;9.278;2022-09-27T14:17:01;97305.84;;;8.57;88.92
9969;BME280;5025;48.890;9.278;2022-09-27T14:19:31;97305.13;;;8.67;88.85
9969;BME280;5025;48.890;9.278;2022-09-27T14:21:56;97302.53;;;8.72;88.87
9969;BME280;5025;48.890;9.278;2022-09-27T14:24:26;97305.88;;;8.85;88.76
9969;BME280;5025;48.890;9.278;2022-09-27T14:27:23;97313.78;;;8.69;88.54
9969;BME280;5025;48.890;9.278;2022-09-27T14:29:56;97318.91;;;8.71;88.84
9969;BME280;5025;48.890;9.278;2022-09-27T14:32:25;97319.47;;;8.73;88.86
9969;BME280;5025;48.890;9.278;2022-09-27T14:37:52;97305.88;;;8.85;88.58
9969;BME280;5025;48.890;9.278;2022-09-27T14:40:20;97307.59;;;8.96;88.13
9969;BME280;5025;48.890;9.278;2022-09-27T14:42:52;97307.94;;;9.05;87.99
9969;BME280;5025;48.890;9.278;2022-09-27T14:45:35;97303.41;;;9.10;87.70
9969;BME280;5025;48.890;9.278;2022-09-27T14:48:16;97312.09;;;9.18;87.68
9969;BME280;5025;48.890;9.278;2022-09-27T14:50:52;97319.38;;;9.17;87.52
9969;BME280;5025;48.890;9.278;2022-09-27T14:53:23;97305.97;;;9.27;87.58
9969;BME280;5025;48.890;9.278;2022-09-27T14:56:00;97306.66;;;9.45;88.01
9969;BME280;5025;48.890;9.278;2022-09-27T14:58:38;97297.53;;;9.94;88.17
9969;BME280;5025;48.890;9.278;2022-09-27T15:01:15;97300.91;;;10.21;86.37
9969;BME280;5025;48.890;9.278;2022-09-27T15:03:51;97306.84;;;10.23;85.66
9969;BME280;5025;48.890;9.278;2022-09-27T15:06:22;97314.41;;;10.21;85.54
9969;BME280;5025;48.890;9.278;2022-09-27T15:08:49;97309.59;;;10.29;86.39
9969;BME280;5025;48.890;9.278;2022-09-27T15:11:16;97282.28;;;11.24;87.75
9969;BME280;5025;48.890;9.278;2022-09-27T15:13:44;97301.03;;;12.37;84.57
9969;BME280;5025;48.890;9.278;2022-09-27T15:16:31;97297.88;;;13.15;78.88
9969;BME280;5025;48.890;9.278;2022-09-27T15:19:02;97314.19;;;13.84;76.87
9969;BME280;5025;48.890;9.278;2022-09-27T15:21:36;97321.16;;;13.60;76.42
9969;BME280;5025;48.890;9.278;2022-09-27T15:24:02;97325.66;;;12.96;76.36
9969;BME280;5025;48.890;9.278;2022-09-27T15:27:00;97320.78;;;12.33;76.38
9969;BME280;5025;48.890;9.278;2022-09-27T15:29:58;97310.38;;;11.75;77.11
9969;BME280;5025;48.890;9.278;2022-09-27T15:32:26;97316.06;;;11.47;77.70
9969;BME280;5025;48.890;9.278;2022-09-27T15:35:23;97333.09;;;11.38;78.14
9969;BME280;5025;48.890;9.278;2022-09-27T15:38:09;97330.13;;;11.29;78.43
9969;BME280;5025;48.890;9.278;2022-09-27T15:43:19;97321.41;;;10.86;79.89
9969;BME280;5025;48.890;9.278;2022-09-27T15:45:51;97313.63;;;11.10;80.14
9969;BME280;5025;48.890;9.278;2022-09-27T15:48:18;97315.81;;;11.28;79.28
9969;BME280;5025;48.890;9.278;2022-09-27T15:50:44;97317.94;;;11.37;79.09
9969;BME280;5025;48.890;9.278;2022-09-27T15:53:11;97319.03;;;11.25;79.47
9969;BME280;5025;48.890;9.278;2022-09-27T15:55:41;97315.25;;;11.21;77.93
9969;BME280;5025;48.890;9.278;2022-09-27T15:58:18;97317.94;;;11.16;76.98
9969;BME280;5025;48.890;9.278;2022-09-27T16:00:55;97314.97;;;10.97;75.33
9969;BME280;5025;48.890;9.278;2022-09-27T16:03:22;97307.63;;;10.87;74.98
9969;BME280;5025;48.890;9.278;2022-09-27T16:05:48;97314.09;;;10.76;73.05
9969;BME280;5025;48.890;9.278;2022-09-27T16:08:14;97325.16;;;10.80;73.03
9969;BME280;5025;48.890;9.278;2022-09-27T16:10:43;97323.63;;;11.20;72.27
9969;BME280;5025;48.890;9.278;2022-09-27T16:13:23;97326.88;;;11.27;71.44
9969;BME280;5025;48.890;9.278;2022-09-27T16:15:54;97325.50;;;11.09;70.85
9969;BME280;5025;48.890;9.278;2022-09-27T16:18:26;97330.91;;;10.99;71.32
9969;BME280;5025;48.890;9.278;2022-09-27T16:21:12;97337.31;;;10.77;71.37
9969;BME280;5025;48.890;9.278;2022-09-27T16:23:51;97338.66;;;10.69;71.50